sensor_id;sensor_type;location;lat;lon;timestamp;P1;durP1;ratioP1;P2;durP2;ratioP2
45434;SDS011;31183;47.404;8.500;2023-02-28T00:00:26;10.73;;;8.27;;
45434;SDS011;31183;47.404;8.500;2023-02-28T00:02:52;11.77;;;8.02;;
45434;SDS011;31183;47.404;8.500;2023-02-28T00:05:20;10.93;;;8.45;;
45434;SDS011;31183;47.404;8.500;2023-02-28T00:07:48;13.57;;;9.02;;
45434;SDS011;31183;47.404;8.500;2023-02-28T00:10:16;11.93;;;8.77;;
45434;SDS011;31183;47.404;8.500;2023-02-28T00:12:47;11.13;;;8.85;;
45434;SDS011;31183;47.404;8.500;2023-02-28T00:15:14;11.30;;;8.20;;
45434;SDS011;31183;47.404;8.500;2023-02-28T00:17:41;10.90;;;8.32;;
45434;SDS011;31183;47.404;8.500;2023-02-28T00:20:09;12.93;;;9.20;;
45434;SDS011;31183;47.404;8.500;2023-02-28T00:22:38;15.40;;;9.18;;
45434;SDS011;31183;47.404;8.500;2023-02-28T00:25:07;11.77;;;8.40;;
45434;SDS011;31183;47.404;8.500;2023-02-28T00:27:34;15.15;;;9.63;;
45434;SDS011;31183;47.404;8.500;2023-02-28T00:30:02;10.57;;;8.48;;
45434;SDS011;31183;47.404;8.500;2023-02-28T00:32:30;12.48;;;9.25;;
45434;SDS011;31183;47.404;8.500;2023-02-28T00:34:56;10.63;;;8.60;;
45434;SDS011;31183;47.404;8.500;2023-02-28T00:37:23;12.35;;;9.43;;
45434;SDS011;31183;47.404;8.500;2023-02-28T00:39:50;11.20;;;9.10;;
45434;SDS011;31183;47.404;8.500;2023-02-28T00:42:16;13.68;;;10.93;;
45434;SDS011;31183;47.404;8.500;2023-02-28T00:44:43;12.63;;;9.10;;
45434;SDS011;31183;47.404;8.500;2023-02-28T00:47:09;14.75;;;9.75;;
45434;SDS011;31183;47.404;8.500;2023-02-28T00:49:36;11.95;;;9.25;;
45434;SDS011;31183;47.404;8.500;2023-02-28T00:52:03;9.60;;;7.97;;
45434;SDS011;31183;47.404;8.500;2023-02-28T00:54:30;13.25;;;9.63;;
45434;SDS011;31183;47.404;8.500;2023-02-28T00:56:56;12.85;;;9.15;;
45434;SDS011;31183;47.404;8.500;2023-02-28T00:59:23;11.93;;;9.80;;
45434;SDS011;31183;47.404;8.500;2023-02-28T01:01:49;11.38;;;9.82;;
45434;SDS011;31183;47.404;8.500;2023-02-28T01:04:16;12.13;;;9.02;;
45434;SDS011;31183;47.404;8.500;2023-02-28T01:06:43;11.65;;;9.30;;
45434;SDS011;31183;47.404;8.500;2023-02-28T01:09:10;11.85;;;9.57;;
45434;SDS011;31183;47.404;8.500;2023-02-28T01:11:36;12.27;;;9.77;;
45434;SDS011;31183;47.404;8.500;2023-02-28T01:14:03;12.15;;;9.35;;
45434;SDS011;31183;47.404;8.500;2023-02-28T01:16:30;11.73;;;9.30;;
45434;SDS011;31183;47.404;8.500;2023-02-28T01:18:57;13.77;;;9.68;;
45434;SDS011;31183;47.404;8.500;2023-02-28T01:21:23;13.90;;;10.02;;
45434;SDS011;31183;47.404;8.500;2023-02-28T01:23:50;13.23;;;10.20;;
45434;SDS011;31183;47.404;8.500;2023-02-28T01:26:21;13.00;;;10.73;;
45434;SDS011;31183;47.404;8.500;2023-02-28T01:28:48;11.35;;;9.60;;
45434;SDS011;31183;47.404;8.500;2023-02-28T01:31:17;14.98;;;10.48;;
45434;SDS011;31183;47.404;8.500;2023-02-28T01:33:44;13.30;;;10.48;;
45434;SDS011;31183;47.404;8.500;2023-02-28T01:36:12;12.68;;;9.23;;
45434;SDS011;31183;47.404;8.500;2023-02-28T01:38:40;14.70;;;9.75;;
45434;SDS011;31183;47.404;8.500;2023-02-28T01:41:07;14.18;;;10.65;;
45434;SDS011;31183;47.404;8.500;2023-02-28T01:46:08;14.10;;;9.98;;
45434;SDS011;31183;47.404;8.500;2023-02-28T01:48:37;12.50;;;9.32;;
45434;SDS011;31183;47.404;8.500;2023-02-28T01:51:11;17.15;;;11.38;;
45434;SDS011;31183;47.404;8.500;2023-02-28T01:53:47;14.55;;;10.32;;
45434;SDS011;31183;47.404;8.500;2023-02-28T01:56:18;16.70;;;10.27;;
45434;SDS011;31183;47.404;8.500;2023-02-28T01:58:49;16.70;;;11.80;;
45434;SDS011;31183;47.404;8.500;2023-02-28T02:01:18;14.48;;;11.00;;
45434;SDS011;31183;47.404;8.500;2023-02-28T02:03:49;13.05;;;10.27;;
45434;SDS011;31183;47.404;8.500;2023-02-28T02:06:28;13.32;;;10.10;;
45434;SDS011;31183;47.404;8.500;2023-02-28T02:09:04;16.17;;;10.85;;
45434;SDS011;31183;47.404;8.500;2023-02-28T02:11:30;15.13;;;10.52;;
45434;SDS011;31183;47.404;8.500;2023-02-28T02:16:58;11.05;;;9.88;;
45434;SDS011;31183;47.404;8.500;2023-02-28T02:28:05;14.70;;;11.30;;
45434;SDS011;31183;47.404;8.500;2023-02-28T02:39:18;14.27;;;10.32;;
45434;SDS011;31183;47.404;8.500;2023-02-28T02:41:56;16.40;;;11.00;;
45434;SDS011;31183;47.404;8.500;2023-02-28T02:44:28;13.38;;;9.77;;
45434;SDS011;31183;47.404;8.500;2023-02-28T02:47:05;13.80;;;10.13;;
45434;SDS011;31183;47.404;8.500;2023-02-28T02:49:36;11.38;;;10.00;;
45434;SDS011;31183;47.404;8.500;2023-02-28T02:52:05;12.60;;;9.23;;
45434;SDS011;31183;47.404;8.500;2023-02-28T02:54:35;15.32;;;11.60;;
45434;SDS011;31183;47.404;8.500;2023-02-28T02:57:10;13.85;;;10.90;;
45434;SDS011;31183;47.404;8.500;2023-02-28T02:59:43;17.25;;;11.23;;
45434;SDS011;31183;47.404;8.500;2023-02-28T03:02:11;14.57;;;10.25;;
45434;SDS011;31183;47.404;8.500;2023-02-28T03:04:43;14.65;;;10.57;;
45434;SDS011;31183;47.404;8.500;2023-02-28T03:07:14;13.13;;;10.23;;
45434;SDS011;31183;47.404;8.500;2023-02-28T03:09:49;12.45;;;10.27;;
45434;SDS011;31183;47.404;8.500;2023-02-28T03:12:25;13.00;;;10.30;;
45434;SDS011;31183;47.404;8.500;2023-02-28T03:18:05;11.23;;;10.02;;
45434;SDS011;31183;47.404;8.500;2023-02-28T03:20:35;13.15;;;9.93;;
45434;SDS011;31183;47.404;8.500;2023-02-28T03:23:12;14.38;;;11.02;;
45434;SDS011;31183;47.404;8.500;2023-02-28T03:25:54;12.85;;;10.20;;
45434;SDS011;31183;47.404;8.500;2023-02-28T03:28:31;14.55;;;10.68;;
45434;SDS011;31183;47.404;8.500;2023-02-28T03:36:28;13.10;;;10.32;;
45434;SDS011;31183;47.404;8.500;2023-02-28T03:44:23;14.52;;;10.73;;
45434;SDS011;31183;47.404;8.500;2023-02-28T03:46:58;12.20;;;9.65;;
45434;SDS011;31183;47.404;8.500;2023-02-28T03:49:30;14.80;;;11.32;;
45434;SDS011;31183;47.404;8.500;2023-02-28T03:52:02;15.30;;;10.95;;
45434;SDS011;31183;47.404;8.500;2023-02-28T03:54:32;12.82;;;10.55;;
45434;SDS011;31183;47.404;8.500;2023-02-28T03:57:12;13.18;;;10.07;;
45434;SDS011;31183;47.404;8.500;2023-02-28T04:00:05;13.35;;;11.32;;
45434;SDS011;31183;47.404;8.500;2023-02-28T04:02:33;13.23;;;9.60;;
45434;SDS011;31183;47.404;8.500;2023-02-28T04:05:00;12.07;;;10.65;;
45434;SDS011;31183;47.404;8.500;2023-02-28T04:07:30;14.85;;;10.85;;
45434;SDS011;31183;47.404;8.500;2023-02-28T04:09:57;13.20;;;10.40;;
45434;SDS011;31183;47.404;8.500;2023-02-28T04:12:24;13.85;;;10.20;;
45434;SDS011;31183;47.404;8.500;2023-02-28T04:14:51;12.82;;;10.43;;
45434;SDS011;31183;47.404;8.500;2023-02-28T04:17:18;14.57;;;10.63;;
45434;SDS011;31183;47.404;8.500;2023-02-28T04:19:45;14.23;;;9.55;;
45434;SDS011;31183;47.404;8.500;2023-02-28T04:22:11;12.63;;;10.43;;
45434;SDS011;31183;47.404;8.500;2023-02-28T04:24:38;14.00;;;11.20;;
45434;SDS011;31183;47.404;8.500;2023-02-28T04:27:08;12.63;;;10.27;;
45434;SDS011;31183;47.404;8.500;2023-02-28T04:29:35;12.10;;;10.82;;
45434;SDS011;31183;47.404;8.500;2023-02-28T04:32:02;13.27;;;9.82;;
45434;SDS011;31183;47.404;8.500;2023-02-28T04:34:30;13.23;;;10.02;;
45434;SDS011;31183;47.404;8.500;2023-02-28T04:36:57;11.68;;;9.25;;
45434;SDS011;31183;47.404;8.500;2023-02-28T04:39:37;15.85;;;10.38;;
45434;SDS011;31183;47.404;8.500;2023-02-28T04:42:05;14.35;;;10.50;;
45434;SDS011;31183;47.404;8.500;2023-02-28T04:44:32;13.43;;;11.18;;
45434;SDS011;31183;47.404;8.500;2023-02-28T04:46:58;14.65;;;11.05;;
45434;SDS011;31183;47.404;8.500;2023-02-28T04:49:25;12.98;;;10.55;;
45434;SDS011;31183;47.404;8.500;2023-02-28T04:51:52;11.27;;;9.80;;
45434;SDS011;31183;47.404;8.500;2023-02-28T04:54:19;12.45;;;10.48;;
45434;SDS011;31183;47.404;8.500;2023-02-28T04:56:45;12.07;;;10.18;;
45434;SDS011;31183;47.404;8.500;2023-02-28T04:59:14;14.05;;;9.82;;
45434;SDS011;31183;47.404;8.500;2023-02-28T05:01:41;14.50;;;10.50;;
45434;SDS011;31183;47.404;8.500;2023-02-28T05:04:12;14.38;;;10.02;;
45434;SDS011;31183;47.404;8.500;2023-02-28T05:06:39;13.73;;;10.52;;
45434;SDS011;31183;47.404;8.500;2023-02-28T05:09:06;15.02;;;10.85;;
45434;SDS011;31183;47.404;8.500;2023-02-28T05:11:33;12.27;;;10.13;;
45434;SDS011;31183;47.404;8.500;2023-02-28T05:14:05;14.18;;;11.05;;
45434;SDS011;31183;47.404;8.500;2023-02-28T05:16:35;12.60;;;9.35;;
45434;SDS011;31183;47.404;8.500;2023-02-28T05:19:02;21.45;;;10.25;;
45434;SDS011;31183;47.404;8.500;2023-02-28T05:21:33;12.10;;;9.55;;
45434;SDS011;31183;47.404;8.500;2023-02-28T05:26:28;14.18;;;10.27;;
45434;SDS011;31183;47.404;8.500;2023-02-28T05:28:56;15.90;;;10.25;;
45434;SDS011;31183;47.404;8.500;2023-02-28T05:31:23;14.30;;;10.90;;
45434;SDS011;31183;47.404;8.500;2023-02-28T05:33:50;13.63;;;11.07;;
45434;SDS011;31183;47.404;8.500;2023-02-28T05:36:17;13.65;;;9.73;;
45434;SDS011;31183;47.404;8.500;2023-02-28T05:38:48;13.10;;;10.27;;
45434;SDS011;31183;47.404;8.500;2023-02-28T05:41:16;22.33;;;12.50;;
45434;SDS011;31183;47.404;8.500;2023-02-28T05:43:45;12.77;;;9.57;;
45434;SDS011;31183;47.404;8.500;2023-02-28T05:46:12;13.68;;;10.00;;
45434;SDS011;31183;47.404;8.500;2023-02-28T05:48:39;10.82;;;9.45;;
45434;SDS011;31183;47.404;8.500;2023-02-28T05:51:11;14.82;;;9.55;;
45434;SDS011;31183;47.404;8.500;2023-02-28T05:53:37;11.25;;;9.90;;
45434;SDS011;31183;47.404;8.500;2023-02-28T05:56:04;15.43;;;10.27;;
45434;SDS011;31183;47.404;8.500;2023-02-28T05:58:31;17.65;;;10.07;;
45434;SDS011;31183;47.404;8.500;2023-02-28T06:00:58;12.57;;;10.00;;
45434;SDS011;31183;47.404;8.500;2023-02-28T06:03:26;15.05;;;10.25;;
45434;SDS011;31183;47.404;8.500;2023-02-28T06:05:53;11.57;;;10.15;;
45434;SDS011;31183;47.404;8.500;2023-02-28T06:08:20;12.85;;;9.95;;
45434;SDS011;31183;47.404;8.500;2023-02-28T06:10:46;11.10;;;9.98;;
45434;SDS011;31183;47.404;8.500;2023-02-28T06:13:13;14.48;;;10.25;;
45434;SDS011;31183;47.404;8.500;2023-02-28T06:15:40;14.02;;;10.35;;
45434;SDS011;31183;47.404;8.500;2023-02-28T06:18:07;13.55;;;10.23;;
45434;SDS011;31183;47.404;8.500;2023-02-28T06:20:34;15.95;;;9.85;;
45434;SDS011;31183;47.404;8.500;2023-02-28T06:23:02;12.95;;;10.48;;
45434;SDS011;31183;47.404;8.500;2023-02-28T06:25:28;10.32;;;8.73;;
45434;SDS011;31183;47.404;8.500;2023-02-28T06:27:55;14.82;;;9.55;;
45434;SDS011;31183;47.404;8.500;2023-02-28T06:30:22;11.38;;;9.45;;
45434;SDS011;31183;47.404;8.500;2023-02-28T06:32:53;12.75;;;10.07;;
45434;SDS011;31183;47.404;8.500;2023-02-28T06:35:20;13.07;;;9.93;;
45434;SDS011;31183;47.404;8.500;2023-02-28T06:37:47;12.00;;;10.13;;
45434;SDS011;31183;47.404;8.500;2023-02-28T06:40:14;12.73;;;10.45;;
45434;SDS011;31183;47.404;8.500;2023-02-28T06:42:41;11.65;;;9.95;;
45434;SDS011;31183;47.404;8.500;2023-02-28T06:45:08;13.40;;;10.25;;
45434;SDS011;31183;47.404;8.500;2023-02-28T06:47:37;17.75;;;10.15;;
45434;SDS011;31183;47.404;8.500;2023-02-28T06:50:05;14.00;;;11.18;;
45434;SDS011;31183;47.404;8.500;2023-02-28T06:52:35;16.63;;;11.93;;
45434;SDS011;31183;47.404;8.500;2023-02-28T06:55:05;11.27;;;9.82;;
45434;SDS011;31183;47.404;8.500;2023-02-28T06:57:33;12.68;;;10.70;;
45434;SDS011;31183;47.404;8.500;2023-02-28T07:00:02;15.70;;;10.68;;
45434;SDS011;31183;47.404;8.500;2023-02-28T07:04:58;14.98;;;11.13;;
45434;SDS011;31183;47.404;8.500;2023-02-28T07:07:25;15.15;;;10.45;;
45434;SDS011;31183;47.404;8.500;2023-02-28T07:09:51;13.52;;;10.23;;
45434;SDS011;31183;47.404;8.500;2023-02-28T07:12:18;12.48;;;10.05;;
45434;SDS011;31183;47.404;8.500;2023-02-28T07:14:44;11.57;;;10.00;;
45434;SDS011;31183;47.404;8.500;2023-02-28T07:17:11;12.90;;;10.38;;
45434;SDS011;31183;47.404;8.500;2023-02-28T07:19:38;16.05;;;10.13;;
45434;SDS011;31183;47.404;8.500;2023-02-28T07:22:05;15.52;;;11.07;;
45434;SDS011;31183;47.404;8.500;2023-02-28T07:24:32;17.92;;;11.10;;
45434;SDS011;31183;47.404;8.500;2023-02-28T07:26:59;14.77;;;10.27;;
45434;SDS011;31183;47.404;8.500;2023-02-28T07:29:26;16.10;;;11.38;;
45434;SDS011;31183;47.404;8.500;2023-02-28T07:31:53;16.40;;;11.88;;
45434;SDS011;31183;47.404;8.500;2023-02-28T07:34:20;14.93;;;10.98;;
45434;SDS011;31183;47.404;8.500;2023-02-28T07:36:47;20.90;;;11.60;;
45434;SDS011;31183;47.404;8.500;2023-02-28T07:39:13;13.93;;;11.20;;
45434;SDS011;31183;47.404;8.500;2023-02-28T07:41:40;15.38;;;11.52;;
45434;SDS011;31183;47.404;8.500;2023-02-28T07:44:10;14.00;;;10.85;;
45434;SDS011;31183;47.404;8.500;2023-02-28T07:46:37;14.70;;;11.82;;
45434;SDS011;31183;47.404;8.500;2023-02-28T07:49:04;17.42;;;10.57;;
45434;SDS011;31183;47.404;8.500;2023-02-28T07:51:31;15.57;;;12.18;;
45434;SDS011;31183;47.404;8.500;2023-02-28T07:53:58;15.35;;;11.10;;
45434;SDS011;31183;47.404;8.500;2023-02-28T07:56:24;14.20;;;11.25;;
45434;SDS011;31183;47.404;8.500;2023-02-28T07:58:51;16.63;;;12.02;;
45434;SDS011;31183;47.404;8.500;2023-02-28T08:01:18;13.70;;;10.65;;
45434;SDS011;31183;47.404;8.500;2023-02-28T08:03:45;18.35;;;11.23;;
45434;SDS011;31183;47.404;8.500;2023-02-28T08:06:19;20.83;;;12.45;;
45434;SDS011;31183;47.404;8.500;2023-02-28T08:08:50;14.27;;;11.13;;
45434;SDS011;31183;47.404;8.500;2023-02-28T08:11:17;17.90;;;11.60;;
45434;SDS011;31183;47.404;8.500;2023-02-28T08:13:44;15.48;;;11.95;;
45434;SDS011;31183;47.404;8.500;2023-02-28T08:16:11;15.75;;;11.15;;
45434;SDS011;31183;47.404;8.500;2023-02-28T08:18:48;15.15;;;12.18;;
45434;SDS011;31183;47.404;8.500;2023-02-28T08:21:18;14.70;;;11.48;;
45434;SDS011;31183;47.404;8.500;2023-02-28T08:23:47;15.57;;;11.68;;
45434;SDS011;31183;47.404;8.500;2023-02-28T08:26:15;15.43;;;11.68;;
45434;SDS011;31183;47.404;8.500;2023-02-28T08:28:42;15.18;;;11.82;;
45434;SDS011;31183;47.404;8.500;2023-02-28T08:31:11;14.98;;;11.13;;
45434;SDS011;31183;47.404;8.500;2023-02-28T08:33:39;15.77;;;11.98;;
45434;SDS011;31183;47.404;8.500;2023-02-28T08:36:06;16.98;;;12.48;;
45434;SDS011;31183;47.404;8.500;2023-02-28T08:38:35;18.00;;;12.27;;
45434;SDS011;31183;47.404;8.500;2023-02-28T08:41:03;14.90;;;11.77;;
45434;SDS011;31183;47.404;8.500;2023-02-28T08:43:33;17.70;;;11.63;;
45434;SDS011;31183;47.404;8.500;2023-02-28T08:46:00;13.43;;;11.23;;
45434;SDS011;31183;47.404;8.500;2023-02-28T08:48:28;18.40;;;12.38;;
45434;SDS011;31183;47.404;8.500;2023-02-28T08:53:34;19.80;;;11.50;;
45434;SDS011;31183;47.404;8.500;2023-02-28T08:56:06;15.05;;;11.45;;
45434;SDS011;31183;47.404;8.500;2023-02-28T08:58:35;18.67;;;12.35;;
45434;SDS011;31183;47.404;8.500;2023-02-28T09:01:07;16.83;;;12.75;;
45434;SDS011;31183;47.404;8.500;2023-02-28T09:03:41;16.55;;;12.07;;
45434;SDS011;31183;47.404;8.500;2023-02-28T09:06:09;20.42;;;12.25;;
45434;SDS011;31183;47.404;8.500;2023-02-28T09:08:37;16.83;;;11.90;;
45434;SDS011;31183;47.404;8.500;2023-02-28T09:11:04;29.23;;;12.90;;
45434;SDS011;31183;47.404;8.500;2023-02-28T09:13:31;18.20;;;11.38;;
45434;SDS011;31183;47.404;8.500;2023-02-28T09:15:59;17.77;;;12.20;;
45434;SDS011;31183;47.404;8.500;2023-02-28T09:18:27;15.73;;;11.40;;
45434;SDS011;31183;47.404;8.500;2023-02-28T09:20:55;16.95;;;11.20;;
45434;SDS011;31183;47.404;8.500;2023-02-28T09:23:22;14.55;;;12.10;;
45434;SDS011;31183;47.404;8.500;2023-02-28T09:25:53;14.45;;;11.90;;
45434;SDS011;31183;47.404;8.500;2023-02-28T09:30:48;13.38;;;10.70;;
45434;SDS011;31183;47.404;8.500;2023-02-28T09:33:16;20.10;;;13.07;;
45434;SDS011;31183;47.404;8.500;2023-02-28T09:35:49;18.10;;;12.83;;
45434;SDS011;31183;47.404;8.500;2023-02-28T09:38:16;16.08;;;11.50;;
45434;SDS011;31183;47.404;8.500;2023-02-28T09:40:48;16.85;;;12.95;;
45434;SDS011;31183;47.404;8.500;2023-02-28T09:43:20;15.35;;;10.70;;
45434;SDS011;31183;47.404;8.500;2023-02-28T09:46:02;16.77;;;12.65;;
45434;SDS011;31183;47.404;8.500;2023-02-28T09:48:39;16.85;;;11.57;;
45434;SDS011;31183;47.404;8.500;2023-02-28T09:51:13;17.25;;;11.85;;
45434;SDS011;31183;47.404;8.500;2023-02-28T09:53:53;17.48;;;11.75;;
45434;SDS011;31183;47.404;8.500;2023-02-28T09:56:36;14.80;;;11.50;;
45434;SDS011;31183;47.404;8.500;2023-02-28T09:59:18;18.67;;;12.95;;
45434;SDS011;31183;47.404;8.500;2023-02-28T10:02:13;15.20;;;11.65;;
45434;SDS011;31183;47.404;8.500;2023-02-28T10:05:19;16.05;;;12.25;;
45434;SDS011;31183;47.404;8.500;2023-02-28T10:10:37;15.25;;;11.48;;
45434;SDS011;31183;47.404;8.500;2023-02-28T10:13:14;17.00;;;11.55;;
45434;SDS011;31183;47.404;8.500;2023-02-28T10:16:01;14.32;;;12.20;;
45434;SDS011;31183;47.404;8.500;2023-02-28T10:18:47;15.75;;;11.93;;
45434;SDS011;31183;47.404;8.500;2023-02-28T10:21:23;15.60;;;11.70;;
45434;SDS011;31183;47.404;8.500;2023-02-28T10:23:59;25.90;;;12.98;;
45434;SDS011;31183;47.404;8.500;2023-02-28T10:26:43;20.23;;;12.35;;
45434;SDS011;31183;47.404;8.500;2023-02-28T10:29:13;15.50;;;10.73;;
45434;SDS011;31183;47.404;8.500;2023-02-28T10:31:40;31.88;;;14.00;;
45434;SDS011;31183;47.404;8.500;2023-02-28T10:34:07;23.85;;;13.32;;
45434;SDS011;31183;47.404;8.500;2023-02-28T10:36:37;14.57;;;11.38;;
45434;SDS011;31183;47.404;8.500;2023-02-28T10:42:20;15.48;;;12.73;;
45434;SDS011;31183;47.404;8.500;2023-02-28T10:47:49;15.52;;;11.68;;
45434;SDS011;31183;47.404;8.500;2023-02-28T10:50:29;18.48;;;12.95;;
45434;SDS011;31183;47.404;8.500;2023-02-28T10:58:42;15.98;;;12.48;;
45434;SDS011;31183;47.404;8.500;2023-02-28T11:01:21;18.00;;;11.73;;
45434;SDS011;31183;47.404;8.500;2023-02-28T11:06:58;14.43;;;11.75;;
45434;SDS011;31183;47.404;8.500;2023-02-28T11:12:02;15.52;;;12.25;;
45434;SDS011;31183;47.404;8.500;2023-02-28T11:14:35;15.75;;;11.65;;
45434;SDS011;31183;47.404;8.500;2023-02-28T11:17:14;15.02;;;11.95;;
45434;SDS011;31183;47.404;8.500;2023-02-28T11:19:46;15.32;;;12.07;;
45434;SDS011;31183;47.404;8.500;2023-02-28T11:22:17;16.13;;;11.85;;
45434;SDS011;31183;47.404;8.500;2023-02-28T11:24:47;14.57;;;11.45;;
45434;SDS011;31183;47.404;8.500;2023-02-28T11:27:25;15.95;;;13.52;;
45434;SDS011;31183;47.404;8.500;2023-02-28T11:29:58;15.40;;;12.38;;
45434;SDS011;31183;47.404;8.500;2023-02-28T11:32:25;13.43;;;11.95;;
45434;SDS011;31183;47.404;8.500;2023-02-28T11:35:14;17.40;;;13.45;;
45434;SDS011;31183;47.404;8.500;2023-02-28T11:37:48;17.50;;;13.30;;
45434;SDS011;31183;47.404;8.500;2023-02-28T11:40:15;18.13;;;12.63;;
45434;SDS011;31183;47.404;8.500;2023-02-28T11:45:58;14.90;;;12.73;;
45434;SDS011;31183;47.404;8.500;2023-02-28T11:51:42;17.38;;;12.27;;
45434;SDS011;31183;47.404;8.500;2023-02-28T11:57:08;14.30;;;11.73;;
45434;SDS011;31183;47.404;8.500;2023-02-28T12:05:20;17.00;;;12.38;;
45434;SDS011;31183;47.404;8.500;2023-02-28T12:08:21;17.30;;;12.57;;
45434;SDS011;31183;47.404;8.500;2023-02-28T12:19:54;16.65;;;12.73;;
45434;SDS011;31183;47.404;8.500;2023-02-28T12:25:29;14.45;;;12.82;;
45434;SDS011;31183;47.404;8.500;2023-02-28T12:28:17;15.73;;;12.38;;
45434;SDS011;31183;47.404;8.500;2023-02-28T12:33:33;19.98;;;12.35;;
45434;SDS011;31183;47.404;8.500;2023-02-28T12:36:07;16.42;;;12.75;;
45434;SDS011;31183;47.404;8.500;2023-02-28T12:38:43;17.90;;;14.10;;
45434;SDS011;31183;47.404;8.500;2023-02-28T12:41:17;17.10;;;13.05;;
45434;SDS011;31183;47.404;8.500;2023-02-28T12:43:53;17.20;;;13.75;;
45434;SDS011;31183;47.404;8.500;2023-02-28T12:46:30;14.40;;;12.10;;
45434;SDS011;31183;47.404;8.500;2023-02-28T12:49:02;17.83;;;13.45;;
45434;SDS011;31183;47.404;8.500;2023-02-28T12:51:34;18.20;;;14.23;;
45434;SDS011;31183;47.404;8.500;2023-02-28T12:56:53;27.75;;;16.92;;
45434;SDS011;31183;47.404;8.500;2023-02-28T12:59:50;16.88;;;13.23;;
45434;SDS011;31183;47.404;8.500;2023-02-28T13:05:15;19.25;;;13.27;;
45434;SDS011;31183;47.404;8.500;2023-02-28T13:07:58;15.48;;;12.05;;
45434;SDS011;31183;47.404;8.500;2023-02-28T13:10:44;16.85;;;13.98;;
45434;SDS011;31183;47.404;8.500;2023-02-28T13:13:18;25.50;;;16.98;;
45434;SDS011;31183;47.404;8.500;2023-02-28T13:21:06;17.98;;;14.02;;
45434;SDS011;31183;47.404;8.500;2023-02-28T13:28:58;15.25;;;13.30;;
45434;SDS011;31183;47.404;8.500;2023-02-28T13:31:26;18.77;;;14.43;;
45434;SDS011;31183;47.404;8.500;2023-02-28T13:36:24;18.98;;;13.80;;
45434;SDS011;31183;47.404;8.500;2023-02-28T13:39:02;17.60;;;14.20;;
45434;SDS011;31183;47.404;8.500;2023-02-28T13:41:49;18.58;;;14.30;;
45434;SDS011;31183;47.404;8.500;2023-02-28T13:44:19;18.00;;;13.63;;
45434;SDS011;31183;47.404;8.500;2023-02-28T13:51:49;21.25;;;15.25;;
45434;SDS011;31183;47.404;8.500;2023-02-28T13:54:28;16.88;;;13.70;;
45434;SDS011;31183;47.404;8.500;2023-02-28T14:00:13;18.80;;;13.73;;
45434;SDS011;31183;47.404;8.500;2023-02-28T14:05:27;17.23;;;13.88;;
45434;SDS011;31183;47.404;8.500;2023-02-28T14:07:57;19.23;;;13.45;;
45434;SDS011;31183;47.404;8.500;2023-02-28T14:12:58;17.58;;;14.88;;
45434;SDS011;31183;47.404;8.500;2023-02-28T14:15:28;19.83;;;14.40;;
45434;SDS011;31183;47.404;8.500;2023-02-28T14:18:01;19.75;;;13.07;;
45434;SDS011;31183;47.404;8.500;2023-02-28T14:20:32;15.77;;;12.80;;
45434;SDS011;31183;47.404;8.500;2023-02-28T14:25:44;19.02;;;13.80;;
45434;SDS011;31183;47.404;8.500;2023-02-28T14:28:54;18.17;;;13.70;;
45434;SDS011;31183;47.404;8.500;2023-02-28T14:31:29;18.42;;;14.05;;
45434;SDS011;31183;47.404;8.500;2023-02-28T14:34:20;20.30;;;14.18;;
45434;SDS011;31183;47.404;8.500;2023-02-28T14:36:58;20.25;;;14.65;;
45434;SDS011;31183;47.404;8.500;2023-02-28T14:39:27;20.42;;;14.90;;
45434;SDS011;31183;47.404;8.500;2023-02-28T14:41:57;21.25;;;15.60;;
45434;SDS011;31183;47.404;8.500;2023-02-28T14:44:31;22.23;;;15.70;;
45434;SDS011;31183;47.404;8.500;2023-02-28T14:46:59;21.77;;;15.48;;
45434;SDS011;31183;47.404;8.500;2023-02-28T14:49:34;20.13;;;14.48;;
45434;SDS011;31183;47.404;8.500;2023-02-28T14:54:38;20.63;;;15.63;;
45434;SDS011;31183;47.404;8.500;2023-02-28T14:57:05;21.73;;;15.40;;
45434;SDS011;31183;47.404;8.500;2023-02-28T14:59:33;21.70;;;16.35;;
45434;SDS011;31183;47.404;8.500;2023-02-28T15:02:21;21.80;;;16.27;;
45434;SDS011;31183;47.404;8.500;2023-02-28T15:05:00;21.95;;;16.77;;
45434;SDS011;31183;47.404;8.500;2023-02-28T15:07:35;23.90;;;16.05;;
45434;SDS011;31183;47.404;8.500;2023-02-28T15:15:26;21.95;;;16.20;;
45434;SDS011;31183;47.404;8.500;2023-02-28T15:19:00;20.38;;;15.18;;
45434;SDS011;31183;47.404;8.500;2023-02-28T15:21:38;23.35;;;16.30;;
45434;SDS011;31183;47.404;8.500;2023-02-28T15:24:13;24.55;;;16.55;;
45434;SDS011;31183;47.404;8.500;2023-02-28T15:27:04;21.63;;;16.88;;
45434;SDS011;31183;47.404;8.500;2023-02-28T15:32:19;25.73;;;17.27;;
45434;SDS011;31183;47.404;8.500;2023-02-28T15:34:59;26.25;;;16.83;;
45434;SDS011;31183;47.404;8.500;2023-02-28T15:38:16;23.42;;;17.45;;
45434;SDS011;31183;47.404;8.500;2023-02-28T15:40:53;22.20;;;16.75;;
45434;SDS011;31183;47.404;8.500;2023-02-28T15:43:34;29.58;;;18.30;;
45434;SDS011;31183;47.404;8.500;2023-02-28T15:48:31;24.83;;;17.67;;
45434;SDS011;31183;47.404;8.500;2023-02-28T15:53:33;28.98;;;18.80;;
45434;SDS011;31183;47.404;8.500;2023-02-28T15:56:26;24.50;;;17.93;;
45434;SDS011;31183;47.404;8.500;2023-02-28T15:58:55;24.90;;;18.40;;
45434;SDS011;31183;47.404;8.500;2023-02-28T16:01:30;25.00;;;17.75;;
45434;SDS011;31183;47.404;8.500;2023-02-28T16:04:01;24.90;;;17.50;;
45434;SDS011;31183;47.404;8.500;2023-02-28T16:06:32;26.75;;;19.40;;
45434;SDS011;31183;47.404;8.500;2023-02-28T16:09:09;29.92;;;20.25;;
45434;SDS011;31183;47.404;8.500;2023-02-28T16:11:41;25.20;;;17.70;;
45434;SDS011;31183;47.404;8.500;2023-02-28T16:14:15;24.63;;;18.25;;
45434;SDS011;31183;47.404;8.500;2023-02-28T16:16:48;28.38;;;19.58;;
45434;SDS011;31183;47.404;8.500;2023-02-28T16:19:16;29.05;;;18.67;;
45434;SDS011;31183;47.404;8.500;2023-02-28T16:21:43;24.27;;;18.58;;
45434;SDS011;31183;47.404;8.500;2023-02-28T16:24:10;25.48;;;19.30;;
45434;SDS011;31183;47.404;8.500;2023-02-28T16:26:38;27.73;;;19.00;;
45434;SDS011;31183;47.404;8.500;2023-02-28T16:29:07;25.60;;;18.63;;
45434;SDS011;31183;47.404;8.500;2023-02-28T16:31:37;27.63;;;18.20;;
45434;SDS011;31183;47.404;8.500;2023-02-28T16:34:04;25.33;;;18.27;;
45434;SDS011;31183;47.404;8.500;2023-02-28T16:36:31;26.48;;;19.02;;
45434;SDS011;31183;47.404;8.500;2023-02-28T16:38:58;26.17;;;18.98;;
45434;SDS011;31183;47.404;8.500;2023-02-28T16:41:25;29.65;;;19.52;;
45434;SDS011;31183;47.404;8.500;2023-02-28T16:43:54;28.15;;;18.90;;
45434;SDS011;31183;47.404;8.500;2023-02-28T16:46:25;29.98;;;20.20;;
45434;SDS011;31183;47.404;8.500;2023-02-28T16:48:57;37.03;;;22.42;;
45434;SDS011;31183;47.404;8.500;2023-02-28T16:51:24;30.08;;;19.85;;
45434;SDS011;31183;47.404;8.500;2023-02-28T16:53:50;26.48;;;19.60;;
45434;SDS011;31183;47.404;8.500;2023-02-28T16:56:22;27.77;;;20.02;;
45434;SDS011;31183;47.404;8.500;2023-02-28T16:58:50;28.25;;;20.85;;
45434;SDS011;31183;47.404;8.500;2023-02-28T17:01:17;29.08;;;20.83;;
45434;SDS011;31183;47.404;8.500;2023-02-28T17:03:48;28.57;;;19.90;;
45434;SDS011;31183;47.404;8.500;2023-02-28T17:06:25;31.40;;;19.65;;
45434;SDS011;31183;47.404;8.500;2023-02-28T17:08:57;28.35;;;19.40;;
45434;SDS011;31183;47.404;8.500;2023-02-28T17:11:25;30.40;;;19.88;;
45434;SDS011;31183;47.404;8.500;2023-02-28T17:13:53;28.38;;;19.98;;